createdAt,value
2019-02-10T00:00:35.058Z,23.28
2019-02-10T00:03:01.664Z,23.31
2019-02-10T00:05:28.312Z,23.32
2019-02-10T00:07:54.953Z,23.27
2019-02-10T00:10:21.597Z,23.25
2019-02-10T00:12:48.237Z,23.27
2019-02-10T00:15:14.944Z,23.28
2019-02-10T00:17:41.583Z,23.27
2019-02-10T00:20:08.241Z,23.29
2019-02-10T00:22:34.887Z,23.26
2019-02-10T00:25:01.571Z,23.27
2019-02-10T00:27:28.211Z,23.29
2019-02-10T00:29:54.921Z,23.18
2019-02-10T00:32:21.580Z,23.16
2019-02-10T00:34:48.217Z,23.02
2019-02-10T00:37:14.990Z,23.11
2019-02-10T00:39:41.677Z,23.16
2019-02-10T00:42:08.315Z,23.14
2019-02-10T00:44:34.969Z,23.11
2019-02-10T00:47:01.604Z,23.13
2019-02-10T00:49:28.293Z,23.17
2019-02-10T00:51:54.988Z,23.21
2019-02-10T00:54:22.895Z,23.17
2019-02-10T00:56:48.310Z,23.19
2019-02-10T00:59:14.996Z,23.24
2019-02-10T01:01:41.647Z,23.27
2019-02-10T01:04:08.359Z,23.26
2019-02-10T01:06:41.265Z,23.27
2019-02-10T01:09:01.702Z,23.28
2019-02-10T01:11:28.392Z,23.26
2019-02-10T01:13:55.031Z,23.19
2019-02-10T01:16:21.672Z,23.26
2019-02-10T01:18:48.318Z,23.23
2019-02-10T01:21:14.983Z,23.22
2019-02-10T01:23:41.685Z,23.19
2019-02-10T01:26:08.314Z,23.21
2019-02-10T01:28:34.964Z,23.15
2019-02-10T01:31:01.615Z,23.18
2019-02-10T01:33:28.297Z,23.17
2019-02-10T01:35:54.940Z,23.19
2019-02-10T01:38:21.638Z,23.12
2019-02-10T01:40:48.291Z,23.14
2019-02-10T01:43:14.945Z,23.12
2019-02-10T01:45:41.629Z,23.15
2019-02-10T01:48:08.265Z,23.11
2019-02-10T01:50:34.904Z,23.14
2019-02-10T01:53:01.592Z,22.98
2019-02-10T01:55:28.240Z,22.84
2019-02-10T01:57:54.871Z,22.94
2019-02-10T02:00:21.570Z,22.93
2019-02-10T02:02:48.220Z,23.01
2019-02-10T02:05:14.864Z,23.03
2019-02-10T02:07:41.564Z,23.04
2019-02-10T02:10:08.205Z,23.03
2019-02-10T02:12:34.856Z,23.08
2019-02-10T02:15:01.508Z,23.11
2019-02-10T02:17:28.155Z,23.10
2019-02-10T02:19:54.838Z,23.08
2019-02-10T02:22:21.519Z,23.14
2019-02-10T02:24:48.199Z,23.12
2019-02-10T02:27:14.836Z,23.12
2019-02-10T02:29:41.472Z,23.13
2019-02-10T02:32:08.178Z,23.13
2019-02-10T02:34:34.818Z,23.10
2019-02-10T02:37:08.027Z,23.11
2019-02-10T02:39:28.208Z,23.09
2019-02-10T02:41:54.900Z,23.10
2019-02-10T02:44:21.553Z,23.12
2019-02-10T02:46:48.227Z,23.14
2019-02-10T02:49:14.943Z,23.04
2019-02-10T02:51:41.593Z,22.85
2019-02-10T02:54:08.300Z,22.87
2019-02-10T02:56:34.926Z,22.92
2019-02-10T02:59:01.610Z,22.88
2019-02-10T03:01:28.251Z,22.94
2019-02-10T03:03:54.997Z,22.97
2019-02-10T03:06:21.685Z,22.98
2019-02-10T03:08:48.455Z,23.03
2019-02-10T03:11:15.309Z,23.06
2019-02-10T03:13:41.856Z,23.05
2019-02-10T03:16:08.512Z,23.07
2019-02-10T03:18:35.182Z,23.07
2019-02-10T03:21:01.870Z,23.08
2019-02-10T03:23:28.510Z,23.01
2019-02-10T03:25:55.195Z,22.58
2019-02-10T03:28:21.833Z,22.37
2019-02-10T03:30:48.480Z,22.35
2019-02-10T03:33:15.127Z,22.60
2019-02-10T03:35:41.778Z,22.69
2019-02-10T03:38:08.428Z,22.75
2019-02-10T03:40:35.067Z,22.76
2019-02-10T03:43:01.746Z,22.83
2019-02-10T03:45:28.404Z,22.89
2019-02-10T03:47:55.103Z,22.89
2019-02-10T03:50:21.740Z,22.90
2019-02-10T03:52:48.511Z,22.90
2019-02-10T03:55:15.169Z,22.94
2019-02-10T03:57:41.810Z,22.96
2019-02-10T04:00:08.457Z,22.96
2019-02-10T04:02:35.139Z,23.00
2019-02-10T04:05:01.788Z,23.02
2019-02-10T04:07:35.952Z,22.98
2019-02-10T04:09:55.109Z,22.85
2019-02-10T04:12:21.748Z,22.73
2019-02-10T04:14:48.439Z,22.79
2019-02-10T04:17:15.077Z,22.84
2019-02-10T04:19:41.769Z,22.81
2019-02-10T04:22:08.458Z,22.89
2019-02-10T04:24:35.121Z,22.86
2019-02-10T04:27:01.812Z,22.92
2019-02-10T04:29:28.448Z,22.97
2019-02-10T04:31:55.107Z,22.95
2019-02-10T04:34:21.754Z,22.95
2019-02-10T04:36:48.415Z,22.98
2019-02-10T04:39:15.049Z,22.98
2019-02-10T04:41:41.738Z,22.99
2019-02-10T04:44:08.409Z,23.03
2019-02-10T04:46:35.060Z,22.99
2019-02-10T04:49:01.700Z,23.00
2019-02-10T04:51:28.388Z,22.94
2019-02-10T04:53:55.019Z,22.79
2019-02-10T04:56:21.665Z,22.76
2019-02-10T04:58:48.312Z,22.80
2019-02-10T05:01:14.962Z,22.82
2019-02-10T05:03:41.641Z,22.86
2019-02-10T05:06:11.176Z,22.90
2019-02-10T05:08:37.827Z,22.89
2019-02-10T05:11:04.501Z,22.90
2019-02-10T05:13:31.141Z,22.95
2019-02-10T05:15:57.790Z,22.98
2019-02-10T05:18:24.439Z,22.95
2019-02-10T05:20:51.085Z,22.96
2019-02-10T05:23:17.720Z,22.98
2019-02-10T05:25:44.397Z,23.03
2019-02-10T05:28:11.033Z,22.98
2019-02-10T05:30:37.685Z,23.01
2019-02-10T05:33:04.343Z,23.02
2019-02-10T05:35:30.988Z,23.02
2019-02-10T05:38:04.035Z,23.05
2019-02-10T05:40:24.283Z,23.00
2019-02-10T05:42:50.920Z,23.06
2019-02-10T05:45:17.584Z,23.05
2019-02-10T05:47:44.222Z,22.98
2019-02-10T05:50:10.888Z,22.84
2019-02-10T05:52:37.536Z,22.95
2019-02-10T05:55:04.206Z,23.06
2019-02-10T05:57:30.876Z,23.11
2019-02-10T05:59:57.520Z,23.25
2019-02-10T06:02:24.189Z,23.29
2019-02-10T06:04:50.866Z,23.39
2019-02-10T06:07:17.524Z,23.43
2019-02-10T06:09:44.156Z,23.49
2019-02-10T06:12:10.844Z,23.60
2019-02-10T06:14:37.484Z,23.77
2019-02-10T06:17:04.171Z,24.00
2019-02-10T06:19:30.866Z,23.94
2019-02-10T06:21:57.457Z,24.23
2019-02-10T06:24:24.189Z,23.89
2019-02-10T06:26:50.838Z,23.84
2019-02-10T06:29:17.480Z,23.76
2019-02-10T06:31:44.137Z,23.84
2019-02-10T06:34:10.775Z,23.84
2019-02-10T06:36:37.416Z,23.90
2019-02-10T06:39:04.062Z,23.88
2019-02-10T06:41:30.700Z,23.99
2019-02-10T06:43:57.376Z,23.99
2019-02-10T06:46:24.018Z,24.12
2019-02-10T06:48:50.680Z,24.13
2019-02-10T06:51:17.335Z,24.23
2019-02-10T06:53:43.972Z,24.27
2019-02-10T06:56:10.654Z,24.29
2019-02-10T06:58:37.300Z,24.31
2019-02-10T07:01:04.015Z,24.40
2019-02-10T07:03:30.663Z,24.42
2019-02-10T07:05:57.312Z,24.43
2019-02-10T07:08:30.395Z,24.43
2019-02-10T07:10:50.662Z,24.41
2019-02-10T07:13:17.351Z,24.37
2019-02-10T07:15:43.983Z,24.40
2019-02-10T07:18:10.624Z,24.36
2019-02-10T07:20:37.276Z,24.40
2019-02-10T07:23:03.933Z,24.39
2019-02-10T07:25:30.591Z,24.42
2019-02-10T07:27:57.228Z,24.36
2019-02-10T07:30:23.905Z,24.43
2019-02-10T07:32:50.550Z,24.36
2019-02-10T07:35:17.237Z,24.40
2019-02-10T07:37:43.886Z,24.45
2019-02-10T07:40:10.521Z,24.53
2019-02-10T07:42:37.218Z,24.56
2019-02-10T07:45:03.929Z,24.63
2019-02-10T07:47:30.574Z,24.64
2019-02-10T07:49:57.216Z,24.62
2019-02-10T07:52:23.873Z,24.64
2019-02-10T07:54:50.569Z,24.67
2019-02-10T07:57:17.213Z,24.68
2019-02-10T07:59:43.861Z,24.70
2019-02-10T08:02:10.545Z,24.71
2019-02-10T08:04:37.179Z,24.72
2019-02-10T08:07:03.868Z,24.72
2019-02-10T08:09:30.504Z,24.73
2019-02-10T08:11:57.145Z,24.66
2019-02-10T08:14:23.802Z,24.69
2019-02-10T08:16:50.443Z,24.63
2019-02-10T08:19:17.138Z,24.67
2019-02-10T08:21:43.775Z,24.66
2019-02-10T08:24:10.431Z,24.64
2019-02-10T08:26:37.088Z,24.64
2019-02-10T08:29:03.726Z,24.62
2019-02-10T08:31:30.390Z,24.65
2019-02-10T08:33:57.274Z,24.61
2019-02-10T08:36:23.684Z,24.62
2019-02-10T08:38:54.502Z,24.56
2019-02-10T08:41:17.004Z,24.58
2019-02-10T08:43:43.688Z,24.59
2019-02-10T08:46:10.403Z,24.62
2019-02-10T08:48:37.039Z,24.61
2019-02-10T08:51:03.731Z,24.61
2019-02-10T08:53:30.432Z,24.59
2019-02-10T08:55:57.065Z,24.62
2019-02-10T08:58:23.703Z,24.59
2019-02-10T09:00:50.353Z,24.61
2019-02-10T09:03:19.528Z,24.58
2019-02-10T09:05:43.660Z,24.59
2019-02-10T09:08:10.317Z,24.53
2019-02-10T09:10:36.965Z,24.57
2019-02-10T09:13:03.621Z,24.56
2019-02-10T09:15:30.251Z,24.58
2019-02-10T09:17:56.906Z,24.55
2019-02-10T09:20:23.555Z,24.55
2019-02-10T09:22:50.206Z,24.56
2019-02-10T09:25:16.848Z,24.55
2019-02-10T09:27:43.524Z,24.54
2019-02-10T09:30:10.173Z,24.55
2019-02-10T09:32:36.903Z,24.55
2019-02-10T09:35:03.562Z,24.58
2019-02-10T09:37:30.206Z,24.56
2019-02-10T09:39:56.861Z,24.58
2019-02-10T09:42:23.514Z,24.57
2019-02-10T09:44:50.158Z,24.55
2019-02-10T09:47:16.788Z,24.61
2019-02-10T09:49:43.482Z,24.59
2019-02-10T09:52:10.130Z,24.59
2019-02-10T09:54:36.772Z,24.60
2019-02-10T09:57:03.409Z,24.59
2019-02-10T09:59:30.053Z,24.62
2019-02-10T10:01:56.712Z,24.62
2019-02-10T10:04:23.355Z,24.65
2019-02-10T10:06:50.044Z,24.63
2019-02-10T10:09:19.875Z,24.63
2019-02-10T10:11:46.393Z,24.65
2019-02-10T10:14:13.069Z,24.65
2019-02-10T10:16:39.713Z,24.65
2019-02-10T10:19:06.351Z,24.65
2019-02-10T10:21:33.005Z,24.68
2019-02-10T10:23:59.635Z,24.67
2019-02-10T10:26:26.329Z,24.68
2019-02-10T10:28:52.967Z,24.65
2019-02-10T10:31:19.609Z,24.70
2019-02-10T10:33:46.252Z,24.66
2019-02-10T10:36:14.163Z,24.73
2019-02-10T10:38:39.569Z,24.69
2019-02-10T10:41:06.280Z,24.76
2019-02-10T10:43:32.931Z,24.70
2019-02-10T10:46:00.723Z,24.80
2019-02-10T10:48:26.250Z,24.76
2019-02-10T10:50:52.946Z,24.79
2019-02-10T10:53:19.587Z,24.73
2019-02-10T10:55:46.280Z,24.81
2019-02-10T10:58:12.915Z,24.74
2019-02-10T11:00:39.576Z,24.84
2019-02-10T11:03:06.254Z,24.80
2019-02-10T11:05:32.906Z,24.87
2019-02-10T11:07:59.558Z,24.83
2019-02-10T11:10:28.027Z,24.87
2019-02-10T11:12:52.891Z,24.84
2019-02-10T11:15:19.529Z,24.90
2019-02-10T11:17:46.175Z,24.85
2019-02-10T11:20:12.863Z,24.89
2019-02-10T11:22:39.544Z,24.86
2019-02-10T11:25:06.191Z,24.92
2019-02-10T11:27:32.850Z,24.89
2019-02-10T11:29:59.502Z,24.96
2019-02-10T11:32:26.187Z,25.00
2019-02-10T11:34:52.870Z,24.61
2019-02-10T11:37:26.574Z,24.45
2019-02-10T11:39:46.175Z,24.41
2019-02-10T11:42:12.825Z,24.58
2019-02-10T11:44:39.518Z,24.69
2019-02-10T11:47:06.154Z,24.65
2019-02-10T11:49:32.796Z,24.75
2019-02-10T11:51:59.441Z,24.68
2019-02-10T11:54:26.109Z,24.74
2019-02-10T11:56:52.788Z,24.68
2019-02-10T11:59:19.447Z,24.70
2019-02-10T12:01:46.088Z,24.71
2019-02-10T12:04:12.738Z,24.74
2019-02-10T12:06:39.379Z,24.68
2019-02-10T12:09:06.067Z,24.71
2019-02-10T12:11:32.709Z,24.72
2019-02-10T12:13:59.351Z,24.71
2019-02-10T12:16:26.102Z,24.64
2019-02-10T12:18:52.680Z,24.69
2019-02-10T12:21:19.380Z,24.68
2019-02-10T12:23:46.068Z,24.69
2019-02-10T12:26:12.718Z,24.67
2019-02-10T12:28:39.355Z,24.66
2019-02-10T12:31:06.157Z,24.69
2019-02-10T12:33:32.835Z,24.66
2019-02-10T12:35:59.525Z,24.68
2019-02-10T12:38:26.165Z,24.68
2019-02-10T12:40:52.801Z,24.67
2019-02-10T12:43:19.453Z,24.67
2019-02-10T12:45:46.128Z,24.67
2019-02-10T12:48:12.776Z,24.68
2019-02-10T12:50:39.429Z,24.65
2019-02-10T12:53:06.127Z,24.68
2019-02-10T12:55:32.810Z,24.73
2019-02-10T12:57:59.462Z,24.68
2019-02-10T13:00:26.156Z,24.67
2019-02-10T13:02:52.793Z,24.64
2019-02-10T13:05:19.479Z,24.65
2019-02-10T13:07:46.172Z,24.64
2019-02-10T13:10:12.966Z,24.72
2019-02-10T13:12:39.601Z,24.63
2019-02-10T13:15:06.257Z,24.68
2019-02-10T13:17:32.898Z,24.66
2019-02-10T13:19:59.589Z,24.71
2019-02-10T13:22:26.276Z,24.64
2019-02-10T13:24:52.905Z,24.69
2019-02-10T13:27:19.592Z,24.66
2019-02-10T13:29:46.219Z,24.67
2019-02-10T13:32:12.869Z,24.67
2019-02-10T13:34:39.523Z,24.71
2019-02-10T13:37:06.186Z,24.70
2019-02-10T13:39:32.840Z,24.73
2019-02-10T13:41:59.529Z,24.70
2019-02-10T13:44:26.215Z,24.74
2019-02-10T13:46:52.853Z,24.72
2019-02-10T13:49:19.498Z,24.76
2019-02-10T13:51:46.140Z,24.74
2019-02-10T13:54:12.810Z,24.81
2019-02-10T13:56:39.447Z,24.74
2019-02-10T13:59:06.099Z,24.75
2019-02-10T14:01:32.828Z,24.74
2019-02-10T14:03:59.474Z,24.78
2019-02-10T14:06:26.133Z,24.70
2019-02-10T14:08:52.791Z,24.75
2019-02-10T14:11:19.440Z,24.69
2019-02-10T14:13:46.084Z,24.74
2019-02-10T14:16:12.774Z,24.69
2019-02-10T14:18:39.409Z,24.73
2019-02-10T14:21:06.060Z,24.69
2019-02-10T14:23:32.710Z,24.73
2019-02-10T14:25:59.353Z,24.67
2019-02-10T14:28:26.031Z,24.68
2019-02-10T14:30:52.672Z,24.68
2019-02-10T14:33:19.335Z,24.68
2019-02-10T14:35:45.990Z,24.66
2019-02-10T14:38:12.674Z,24.64
2019-02-10T14:40:39.312Z,24.64
2019-02-10T14:43:06.004Z,24.68
2019-02-10T14:45:32.644Z,24.67
2019-02-10T14:47:59.292Z,24.64
2019-02-10T14:50:25.983Z,24.63
2019-02-10T14:52:52.758Z,24.65
2019-02-10T14:55:19.441Z,24.62
2019-02-10T14:57:46.092Z,24.64
2019-02-10T15:00:12.732Z,24.65
2019-02-10T15:02:39.387Z,24.63
2019-02-10T15:05:06.331Z,24.55
2019-02-10T15:07:32.789Z,24.58
2019-02-10T15:09:59.445Z,24.58
2019-02-10T15:12:26.094Z,24.56
2019-02-10T15:14:52.749Z,24.54
2019-02-10T15:17:19.402Z,24.52
2019-02-10T15:19:46.054Z,24.57
2019-02-10T15:22:12.698Z,24.51
2019-02-10T15:24:39.385Z,24.52
2019-02-10T15:27:06.047Z,24.47
2019-02-10T15:29:32.698Z,24.50
2019-02-10T15:32:00.373Z,24.45
2019-02-10T15:34:26.038Z,24.46
2019-02-10T15:36:52.671Z,24.42
2019-02-10T15:39:19.309Z,24.43
2019-02-10T15:41:45.969Z,24.40
2019-02-10T15:44:12.768Z,24.43
2019-02-10T15:46:39.443Z,24.45
2019-02-10T15:49:06.085Z,24.41
2019-02-10T15:51:37.240Z,24.38
2019-02-10T15:53:59.400Z,24.37
2019-02-10T15:56:26.050Z,24.36
2019-02-10T15:58:52.692Z,24.35
2019-02-10T16:01:19.355Z,24.37
2019-02-10T16:03:46.037Z,24.41
2019-02-10T16:06:12.681Z,24.38
2019-02-10T16:08:39.378Z,24.42
2019-02-10T16:11:06.027Z,24.43
2019-02-10T16:13:32.671Z,24.40
2019-02-10T16:15:59.323Z,24.46
2019-02-10T16:18:25.972Z,24.46
2019-02-10T16:20:52.745Z,24.41
2019-02-10T16:23:19.381Z,24.42
2019-02-10T16:25:46.064Z,24.42
2019-02-10T16:28:12.695Z,24.39
2019-02-10T16:30:39.399Z,24.40
2019-02-10T16:33:06.041Z,24.40
2019-02-10T16:35:32.717Z,24.38
2019-02-10T16:37:59.354Z,24.38
2019-02-10T16:40:26.004Z,24.39
2019-02-10T16:42:52.702Z,24.38
2019-02-10T16:45:19.383Z,24.36
2019-02-10T16:47:46.030Z,24.40
2019-02-10T16:50:13.926Z,24.35
2019-02-10T16:52:39.520Z,24.33
2019-02-10T16:55:06.007Z,24.30
2019-02-10T16:57:32.649Z,24.33
2019-02-10T16:59:59.296Z,24.32
2019-02-10T17:02:25.940Z,24.29
2019-02-10T17:04:53.018Z,24.33
2019-02-10T17:07:19.704Z,24.28
2019-02-10T17:09:46.348Z,24.29
2019-02-10T17:12:13.044Z,24.26
2019-02-10T17:14:39.683Z,24.26
2019-02-10T17:17:06.323Z,24.26
2019-02-10T17:19:32.980Z,24.19
2019-02-10T17:21:59.675Z,24.24
2019-02-10T17:24:26.338Z,24.18
2019-02-10T17:26:52.985Z,24.18
2019-02-10T17:29:19.623Z,24.18
2019-02-10T17:31:46.277Z,24.17
2019-02-10T17:34:12.928Z,24.18
2019-02-10T17:36:39.629Z,24.16
2019-02-10T17:39:06.265Z,24.20
2019-02-10T17:41:32.948Z,24.18
2019-02-10T17:43:59.580Z,24.19
2019-02-10T17:46:26.249Z,24.18
2019-02-10T17:48:52.932Z,24.18
2019-02-10T17:51:19.575Z,24.19
2019-02-10T17:53:46.263Z,24.19
2019-02-10T17:56:12.901Z,24.18
2019-02-10T17:58:39.547Z,24.13
2019-02-10T18:01:06.231Z,24.17
2019-02-10T18:03:32.871Z,24.13
2019-02-10T18:05:59.561Z,24.17
2019-02-10T18:08:26.225Z,24.16
2019-02-10T18:10:52.886Z,24.13
2019-02-10T18:13:19.524Z,24.11
2019-02-10T18:15:46.210Z,24.12
2019-02-10T18:18:12.852Z,24.10
2019-02-10T18:20:39.553Z,24.11
2019-02-10T18:23:06.196Z,24.10
2019-02-10T18:25:32.840Z,24.10
2019-02-10T18:27:59.529Z,24.06
2019-02-10T18:30:26.201Z,24.12
2019-02-10T18:32:52.807Z,24.06
2019-02-10T18:35:19.446Z,24.13
2019-02-10T18:37:46.101Z,24.06
2019-02-10T18:40:12.742Z,24.05
2019-02-10T18:42:39.383Z,24.05
2019-02-10T18:45:06.027Z,24.09
2019-02-10T18:47:32.705Z,24.03
2019-02-10T18:49:59.419Z,24.02
2019-02-10T18:52:26.199Z,24.04
2019-02-10T18:54:52.807Z,24.03
2019-02-10T18:57:19.448Z,24.04
2019-02-10T18:59:46.097Z,24.05
2019-02-10T19:02:12.732Z,24.04
2019-02-10T19:04:39.412Z,24.03
2019-02-10T19:07:06.054Z,24.03
2019-02-10T19:09:32.710Z,24.02
2019-02-10T19:11:59.351Z,23.93
2019-02-10T19:14:26.002Z,23.92
2019-02-10T19:16:52.651Z,23.94
2019-02-10T19:19:19.303Z,23.98
2019-02-10T19:21:45.952Z,23.97
2019-02-10T19:24:12.636Z,23.99
2019-02-10T19:26:39.278Z,23.99
2019-02-10T19:29:05.933Z,23.98
2019-02-10T19:31:32.596Z,23.96
2019-02-10T19:33:59.211Z,24.01
2019-02-10T19:36:25.866Z,23.93
2019-02-10T19:38:52.556Z,23.68
2019-02-10T19:41:19.187Z,23.48
2019-02-10T19:43:45.870Z,23.49
2019-02-10T19:46:12.529Z,23.68
2019-02-10T19:48:39.177Z,23.78
2019-02-10T19:51:05.862Z,23.83
2019-02-10T19:53:32.551Z,23.87
2019-02-10T19:55:59.189Z,23.91
2019-02-10T19:58:25.831Z,23.87
2019-02-10T20:00:52.493Z,23.85
2019-02-10T20:03:19.142Z,23.87
2019-02-10T20:05:45.841Z,23.84
2019-02-10T20:08:12.498Z,23.83
2019-02-10T20:10:39.211Z,23.77
2019-02-10T20:13:05.832Z,23.79
2019-02-10T20:15:32.527Z,23.78
2019-02-10T20:17:59.168Z,23.74
2019-02-10T20:20:25.832Z,23.72
2019-02-10T20:22:52.484Z,23.73
2019-02-10T20:25:19.121Z,23.71
2019-02-10T20:27:45.801Z,23.72
2019-02-10T20:30:12.444Z,23.73
2019-02-10T20:32:39.134Z,23.75
2019-02-10T20:35:05.772Z,23.71
2019-02-10T20:37:32.464Z,23.68
2019-02-10T20:39:59.104Z,23.74
2019-02-10T20:42:25.749Z,23.74
2019-02-10T20:44:52.401Z,23.67
2019-02-10T20:47:19.083Z,23.69
2019-02-10T20:49:45.726Z,23.69
2019-02-10T20:52:12.367Z,23.68
2019-02-10T20:54:39.015Z,23.65
2019-02-10T20:57:05.652Z,23.66
2019-02-10T20:59:32.292Z,23.66
2019-02-10T21:01:58.949Z,23.66
2019-02-10T21:04:25.585Z,23.67
2019-02-10T21:06:52.234Z,23.64
2019-02-10T21:09:18.865Z,23.63
2019-02-10T21:11:45.546Z,23.62
2019-02-10T21:14:12.323Z,23.63
2019-02-10T21:16:38.970Z,23.63
2019-02-10T21:19:05.608Z,23.65
2019-02-10T21:21:32.302Z,23.61
2019-02-10T21:23:58.988Z,23.63
2019-02-10T21:26:25.675Z,23.58
2019-02-10T21:28:52.346Z,23.63
2019-02-10T21:31:18.985Z,23.58
2019-02-10T21:33:45.670Z,23.61
2019-02-10T21:36:12.364Z,23.57
2019-02-10T21:38:39.068Z,23.61
2019-02-10T21:41:05.853Z,23.60
2019-02-10T21:43:32.556Z,23.61
2019-02-10T21:45:59.314Z,23.57
2019-02-10T21:48:25.958Z,23.55
2019-02-10T21:50:52.704Z,23.52
2019-02-10T21:53:19.351Z,23.50
2019-02-10T21:55:46.116Z,23.52
2019-02-10T21:58:12.756Z,23.54
2019-02-10T22:00:39.416Z,23.52
2019-02-10T22:03:06.068Z,23.51
2019-02-10T22:05:32.712Z,23.49
2019-02-10T22:07:59.366Z,23.51
2019-02-10T22:10:26.001Z,23.52
2019-02-10T22:12:52.649Z,23.52
2019-02-10T22:15:19.299Z,23.47
2019-02-10T22:17:45.959Z,23.50
2019-02-10T22:20:12.605Z,23.48
2019-02-10T22:22:39.291Z,23.48
2019-02-10T22:25:05.936Z,23.48
2019-02-10T22:27:32.667Z,23.48
2019-02-10T22:29:59.336Z,23.45
2019-02-10T22:32:26.017Z,23.49
2019-02-10T22:34:52.678Z,23.50
2019-02-10T22:37:19.334Z,23.47
2019-02-10T22:39:45.977Z,23.46
2019-02-10T22:42:12.661Z,23.43
2019-02-10T22:44:39.366Z,23.40
2019-02-10T22:47:06.046Z,23.42
2019-02-10T22:49:32.699Z,23.45
2019-02-10T22:51:59.384Z,23.46
2019-02-10T22:54:26.026Z,23.42
2019-02-10T22:56:52.677Z,23.47
2019-02-10T22:59:19.364Z,23.48
2019-02-10T23:01:46.035Z,23.45
2019-02-10T23:04:12.679Z,23.49
2019-02-10T23:06:39.333Z,23.54
2019-02-10T23:09:05.984Z,23.51
2019-02-10T23:11:32.669Z,23.53
2019-02-10T23:13:59.396Z,23.51
2019-02-10T23:16:26.032Z,23.55
2019-02-10T23:18:52.674Z,23.53
2019-02-10T23:21:19.325Z,23.53
2019-02-10T23:23:46.046Z,23.50
2019-02-10T23:26:12.686Z,23.58
2019-02-10T23:28:39.375Z,23.54
2019-02-10T23:31:06.053Z,23.60
2019-02-10T23:33:32.696Z,23.53
2019-02-10T23:35:59.345Z,23.54
2019-02-10T23:38:26.041Z,23.57
2019-02-10T23:40:52.691Z,23.59
2019-02-10T23:43:19.368Z,23.59
2019-02-10T23:45:46.008Z,23.59
2019-02-10T23:48:12.655Z,23.58
2019-02-10T23:50:39.332Z,23.57
2019-02-10T23:53:06.037Z,23.58
2019-02-10T23:55:32.726Z,23.58
2019-02-10T23:57:59.369Z,23.61
